sensor_id;sensor_type;location;lat;lon;timestamp;P1;durP1;ratioP1;P2;durP2;ratioP2
69991;SDS011;57332;51.320;-0.580;2022-08-14T00:01:57;11.57;;;6.93;;
69991;SDS011;57332;51.320;-0.580;2022-08-14T00:04:27;9.57;;;6.22;;
69991;SDS011;57332;51.320;-0.580;2022-08-14T00:07:08;9.50;;;5.85;;
69991;SDS011;57332;51.320;-0.580;2022-08-14T00:09:35;8.90;;;5.75;;
69991;SDS011;57332;51.320;-0.580;2022-08-14T00:12:23;10.05;;;6.10;;
69991;SDS011;57332;51.320;-0.580;2022-08-14T00:15:01;9.95;;;6.03;;
69991;SDS011;57332;51.320;-0.580;2022-08-14T00:17:28;9.52;;;6.15;;
69991;SDS011;57332;51.320;-0.580;2022-08-14T00:19:56;9.43;;;5.63;;
69991;SDS011;57332;51.320;-0.580;2022-08-14T00:22:25;10.57;;;6.47;;
69991;SDS011;57332;51.320;-0.580;2022-08-14T00:25:12;12.60;;;6.82;;
69991;SDS011;57332;51.320;-0.580;2022-08-14T00:27:41;14.50;;;7.78;;
69991;SDS011;57332;51.320;-0.580;2022-08-14T00:30:08;14.90;;;8.82;;
69991;SDS011;57332;51.320;-0.580;2022-08-14T00:32:36;16.48;;;9.10;;
69991;SDS011;57332;51.320;-0.580;2022-08-14T00:35:17;17.52;;;9.75;;
69991;SDS011;57332;51.320;-0.580;2022-08-14T00:37:45;17.90;;;9.27;;
69991;SDS011;57332;51.320;-0.580;2022-08-14T00:40:16;18.35;;;10.23;;
69991;SDS011;57332;51.320;-0.580;2022-08-14T00:42:59;19.13;;;10.68;;
69991;SDS011;57332;51.320;-0.580;2022-08-14T00:45:27;22.15;;;10.98;;
69991;SDS011;57332;51.320;-0.580;2022-08-14T00:47:56;21.50;;;11.60;;
69991;SDS011;57332;51.320;-0.580;2022-08-14T00:50:26;20.10;;;11.02;;
69991;SDS011;57332;51.320;-0.580;2022-08-14T00:52:55;21.45;;;11.35;;
69991;SDS011;57332;51.320;-0.580;2022-08-14T00:55:22;23.08;;;10.90;;
69991;SDS011;57332;51.320;-0.580;2022-08-14T00:57:50;20.30;;;10.95;;
69991;SDS011;57332;51.320;-0.580;2022-08-14T01:00:37;21.40;;;11.27;;
69991;SDS011;57332;51.320;-0.580;2022-08-14T01:03:17;20.20;;;10.90;;
69991;SDS011;57332;51.320;-0.580;2022-08-14T01:05:45;19.75;;;11.07;;
69991;SDS011;57332;51.320;-0.580;2022-08-14T01:08:19;20.63;;;11.45;;
69991;SDS011;57332;51.320;-0.580;2022-08-14T01:11:06;21.02;;;11.52;;
69991;SDS011;57332;51.320;-0.580;2022-08-14T01:13:34;23.20;;;11.52;;
69991;SDS011;57332;51.320;-0.580;2022-08-14T01:16:10;22.23;;;12.05;;
69991;SDS011;57332;51.320;-0.580;2022-08-14T01:18:40;21.55;;;11.50;;
69991;SDS011;57332;51.320;-0.580;2022-08-14T01:24:04;22.58;;;12.68;;
69991;SDS011;57332;51.320;-0.580;2022-08-14T01:26:36;19.85;;;12.95;;
69991;SDS011;57332;51.320;-0.580;2022-08-14T01:29:04;23.58;;;12.13;;
69991;SDS011;57332;51.320;-0.580;2022-08-14T01:31:33;20.58;;;11.38;;
69991;SDS011;57332;51.320;-0.580;2022-08-14T01:34:03;24.42;;;11.55;;
69991;SDS011;57332;51.320;-0.580;2022-08-14T01:36:51;20.45;;;10.65;;
69991;SDS011;57332;51.320;-0.580;2022-08-14T01:39:19;25.25;;;11.48;;
69991;SDS011;57332;51.320;-0.580;2022-08-14T01:41:47;18.40;;;11.18;;
69991;SDS011;57332;51.320;-0.580;2022-08-14T01:44:22;17.73;;;11.05;;
69991;SDS011;57332;51.320;-0.580;2022-08-14T01:47:01;22.73;;;11.50;;
69991;SDS011;57332;51.320;-0.580;2022-08-14T01:49:31;18.92;;;11.55;;
69991;SDS011;57332;51.320;-0.580;2022-08-14T01:52:11;20.88;;;11.80;;
69991;SDS011;57332;51.320;-0.580;2022-08-14T01:54:58;23.65;;;12.55;;
69991;SDS011;57332;51.320;-0.580;2022-08-14T01:57:25;24.00;;;13.40;;
69991;SDS011;57332;51.320;-0.580;2022-08-14T02:00:12;25.77;;;13.63;;
69991;SDS011;57332;51.320;-0.580;2022-08-14T02:02:47;25.67;;;13.70;;
69991;SDS011;57332;51.320;-0.580;2022-08-14T02:05:18;26.55;;;13.52;;
69991;SDS011;57332;51.320;-0.580;2022-08-14T02:07:45;26.52;;;13.57;;
69991;SDS011;57332;51.320;-0.580;2022-08-14T02:10:32;29.90;;;13.27;;
69991;SDS011;57332;51.320;-0.580;2022-08-14T02:13:12;24.98;;;14.23;;
69991;SDS011;57332;51.320;-0.580;2022-08-14T02:15:42;28.25;;;13.65;;
69991;SDS011;57332;51.320;-0.580;2022-08-14T02:18:09;26.52;;;13.88;;
69991;SDS011;57332;51.320;-0.580;2022-08-14T02:20:37;25.85;;;14.00;;
69991;SDS011;57332;51.320;-0.580;2022-08-14T02:23:05;27.08;;;13.90;;
69991;SDS011;57332;51.320;-0.580;2022-08-14T02:25:34;25.95;;;14.63;;
69991;SDS011;57332;51.320;-0.580;2022-08-14T02:28:01;25.38;;;14.48;;
69991;SDS011;57332;51.320;-0.580;2022-08-14T02:30:48;26.80;;;14.82;;
69991;SDS011;57332;51.320;-0.580;2022-08-14T02:33:18;26.23;;;14.82;;
69991;SDS011;57332;51.320;-0.580;2022-08-14T02:35:46;31.25;;;15.15;;
69991;SDS011;57332;51.320;-0.580;2022-08-14T02:38:19;29.88;;;16.08;;
69991;SDS011;57332;51.320;-0.580;2022-08-14T02:40:59;32.38;;;16.15;;
69991;SDS011;57332;51.320;-0.580;2022-08-14T02:43:26;30.35;;;16.38;;
69991;SDS011;57332;51.320;-0.580;2022-08-14T02:46:11;31.98;;;16.73;;
69991;SDS011;57332;51.320;-0.580;2022-08-14T02:48:41;29.90;;;15.65;;
69991;SDS011;57332;51.320;-0.580;2022-08-14T02:51:29;31.45;;;16.45;;
69991;SDS011;57332;51.320;-0.580;2022-08-14T02:53:56;29.52;;;15.55;;
69991;SDS011;57332;51.320;-0.580;2022-08-14T02:56:24;34.72;;;17.23;;
69991;SDS011;57332;51.320;-0.580;2022-08-14T02:59:13;34.05;;;16.60;;
69991;SDS011;57332;51.320;-0.580;2022-08-14T03:01:42;34.63;;;17.25;;
69991;SDS011;57332;51.320;-0.580;2022-08-14T03:04:20;30.02;;;16.42;;
69991;SDS011;57332;51.320;-0.580;2022-08-14T03:06:47;32.90;;;16.70;;
69991;SDS011;57332;51.320;-0.580;2022-08-14T03:09:37;27.05;;;15.27;;
69991;SDS011;57332;51.320;-0.580;2022-08-14T03:12:25;32.28;;;16.25;;
69991;SDS011;57332;51.320;-0.580;2022-08-14T03:15:02;31.23;;;16.38;;
69991;SDS011;57332;51.320;-0.580;2022-08-14T03:17:39;28.58;;;15.45;;
69991;SDS011;57332;51.320;-0.580;2022-08-14T03:20:27;28.08;;;14.05;;
69991;SDS011;57332;51.320;-0.580;2022-08-14T03:22:55;25.23;;;13.98;;
69991;SDS011;57332;51.320;-0.580;2022-08-14T03:25:28;23.35;;;13.20;;
69991;SDS011;57332;51.320;-0.580;2022-08-14T03:28:06;21.98;;;13.35;;
69991;SDS011;57332;51.320;-0.580;2022-08-14T03:30:40;24.77;;;14.07;;
69991;SDS011;57332;51.320;-0.580;2022-08-14T03:33:10;27.35;;;14.50;;
69991;SDS011;57332;51.320;-0.580;2022-08-14T03:35:38;26.02;;;15.13;;
69991;SDS011;57332;51.320;-0.580;2022-08-14T03:38:25;29.65;;;15.00;;
69991;SDS011;57332;51.320;-0.580;2022-08-14T03:41:13;25.52;;;13.82;;
69991;SDS011;57332;51.320;-0.580;2022-08-14T03:43:42;27.17;;;13.55;;
69991;SDS011;57332;51.320;-0.580;2022-08-14T03:46:10;23.83;;;13.52;;
69991;SDS011;57332;51.320;-0.580;2022-08-14T03:48:58;26.35;;;12.73;;
69991;SDS011;57332;51.320;-0.580;2022-08-14T03:51:30;24.20;;;12.30;;
69991;SDS011;57332;51.320;-0.580;2022-08-14T03:53:58;20.58;;;12.77;;
69991;SDS011;57332;51.320;-0.580;2022-08-14T03:56:26;22.10;;;11.98;;
69991;SDS011;57332;51.320;-0.580;2022-08-14T03:58:54;19.65;;;12.02;;
69991;SDS011;57332;51.320;-0.580;2022-08-14T04:01:24;19.13;;;12.25;;
69991;SDS011;57332;51.320;-0.580;2022-08-14T04:04:07;22.05;;;12.48;;
69991;SDS011;57332;51.320;-0.580;2022-08-14T04:06:35;24.40;;;13.38;;
69991;SDS011;57332;51.320;-0.580;2022-08-14T04:09:14;34.63;;;17.60;;
69991;SDS011;57332;51.320;-0.580;2022-08-14T04:11:42;32.10;;;16.67;;
69991;SDS011;57332;51.320;-0.580;2022-08-14T04:14:09;33.13;;;17.08;;
69991;SDS011;57332;51.320;-0.580;2022-08-14T04:16:42;30.75;;;16.33;;
69991;SDS011;57332;51.320;-0.580;2022-08-14T04:19:13;31.40;;;16.90;;
69991;SDS011;57332;51.320;-0.580;2022-08-14T04:21:45;28.23;;;15.90;;
69991;SDS011;57332;51.320;-0.580;2022-08-14T04:24:30;30.88;;;16.17;;
69991;SDS011;57332;51.320;-0.580;2022-08-14T04:27:08;28.90;;;16.42;;
69991;SDS011;57332;51.320;-0.580;2022-08-14T04:29:39;30.42;;;16.13;;
69991;SDS011;57332;51.320;-0.580;2022-08-14T04:32:09;32.05;;;16.60;;
69991;SDS011;57332;51.320;-0.580;2022-08-14T04:34:56;31.98;;;17.55;;
69991;SDS011;57332;51.320;-0.580;2022-08-14T04:37:23;33.58;;;16.52;;
69991;SDS011;57332;51.320;-0.580;2022-08-14T04:40:10;30.63;;;16.45;;
69991;SDS011;57332;51.320;-0.580;2022-08-14T04:42:56;29.52;;;15.90;;
69991;SDS011;57332;51.320;-0.580;2022-08-14T04:45:43;30.92;;;16.23;;
69991;SDS011;57332;51.320;-0.580;2022-08-14T04:48:13;29.38;;;15.93;;
69991;SDS011;57332;51.320;-0.580;2022-08-14T04:51:01;27.02;;;14.98;;
69991;SDS011;57332;51.320;-0.580;2022-08-14T04:53:29;28.20;;;15.75;;
69991;SDS011;57332;51.320;-0.580;2022-08-14T04:56:01;31.17;;;15.07;;
69991;SDS011;57332;51.320;-0.580;2022-08-14T04:58:29;31.63;;;16.08;;
69991;SDS011;57332;51.320;-0.580;2022-08-14T05:00:59;26.65;;;15.50;;
69991;SDS011;57332;51.320;-0.580;2022-08-14T05:03:27;29.95;;;15.00;;
69991;SDS011;57332;51.320;-0.580;2022-08-14T05:05:55;30.67;;;15.75;;
69991;SDS011;57332;51.320;-0.580;2022-08-14T05:08:22;26.80;;;14.82;;
69991;SDS011;57332;51.320;-0.580;2022-08-14T05:11:09;30.48;;;16.23;;
69991;SDS011;57332;51.320;-0.580;2022-08-14T05:13:39;30.48;;;15.73;;
69991;SDS011;57332;51.320;-0.580;2022-08-14T05:16:26;31.13;;;15.85;;
69991;SDS011;57332;51.320;-0.580;2022-08-14T05:18:57;36.75;;;17.52;;
69991;SDS011;57332;51.320;-0.580;2022-08-14T05:21:44;29.52;;;16.20;;
69991;SDS011;57332;51.320;-0.580;2022-08-14T05:24:30;37.40;;;18.35;;
69991;SDS011;57332;51.320;-0.580;2022-08-14T05:26:57;35.72;;;18.23;;
69991;SDS011;57332;51.320;-0.580;2022-08-14T05:29:25;32.65;;;17.88;;
69991;SDS011;57332;51.320;-0.580;2022-08-14T05:31:53;30.95;;;17.73;;
69991;SDS011;57332;51.320;-0.580;2022-08-14T05:34:24;35.83;;;18.13;;
69991;SDS011;57332;51.320;-0.580;2022-08-14T05:36:58;32.22;;;17.48;;
69991;SDS011;57332;51.320;-0.580;2022-08-14T05:39:28;33.67;;;18.08;;
69991;SDS011;57332;51.320;-0.580;2022-08-14T05:41:56;32.40;;;17.13;;
69991;SDS011;57332;51.320;-0.580;2022-08-14T05:44:23;31.30;;;17.88;;
69991;SDS011;57332;51.320;-0.580;2022-08-14T05:46:56;33.38;;;17.40;;
69991;SDS011;57332;51.320;-0.580;2022-08-14T05:49:23;29.23;;;17.02;;
69991;SDS011;57332;51.320;-0.580;2022-08-14T05:51:59;33.47;;;16.88;;
69991;SDS011;57332;51.320;-0.580;2022-08-14T05:54:28;32.83;;;16.75;;
69991;SDS011;57332;51.320;-0.580;2022-08-14T05:57:04;29.92;;;16.15;;
69991;SDS011;57332;51.320;-0.580;2022-08-14T05:59:31;24.10;;;14.38;;
69991;SDS011;57332;51.320;-0.580;2022-08-14T06:02:02;25.73;;;14.75;;
69991;SDS011;57332;51.320;-0.580;2022-08-14T06:04:31;24.50;;;13.93;;
69991;SDS011;57332;51.320;-0.580;2022-08-14T06:06:59;25.05;;;14.50;;
69991;SDS011;57332;51.320;-0.580;2022-08-14T06:09:27;24.73;;;12.95;;
69991;SDS011;57332;51.320;-0.580;2022-08-14T06:12:09;22.77;;;12.68;;
69991;SDS011;57332;51.320;-0.580;2022-08-14T06:14:37;20.48;;;12.10;;
69991;SDS011;57332;51.320;-0.580;2022-08-14T06:17:05;23.42;;;12.35;;
69991;SDS011;57332;51.320;-0.580;2022-08-14T06:19:32;21.13;;;11.65;;
69991;SDS011;57332;51.320;-0.580;2022-08-14T06:21:59;19.58;;;11.60;;
69991;SDS011;57332;51.320;-0.580;2022-08-14T06:24:28;18.50;;;11.65;;
69991;SDS011;57332;51.320;-0.580;2022-08-14T06:27:00;18.70;;;11.60;;
69991;SDS011;57332;51.320;-0.580;2022-08-14T06:29:32;22.52;;;11.95;;
69991;SDS011;57332;51.320;-0.580;2022-08-14T06:32:01;21.73;;;11.27;;
69991;SDS011;57332;51.320;-0.580;2022-08-14T06:34:48;17.95;;;10.90;;
69991;SDS011;57332;51.320;-0.580;2022-08-14T06:37:42;18.08;;;10.77;;
69991;SDS011;57332;51.320;-0.580;2022-08-14T06:40:10;16.77;;;10.30;;
69991;SDS011;57332;51.320;-0.580;2022-08-14T06:42:53;19.73;;;11.13;;
69991;SDS011;57332;51.320;-0.580;2022-08-14T06:45:20;17.17;;;10.57;;
69991;SDS011;57332;51.320;-0.580;2022-08-14T06:47:52;16.48;;;10.68;;
69991;SDS011;57332;51.320;-0.580;2022-08-14T06:50:20;19.20;;;12.15;;
69991;SDS011;57332;51.320;-0.580;2022-08-14T06:52:54;17.35;;;11.07;;
69991;SDS011;57332;51.320;-0.580;2022-08-14T06:55:21;18.25;;;10.57;;
69991;SDS011;57332;51.320;-0.580;2022-08-14T06:57:53;16.85;;;9.75;;
69991;SDS011;57332;51.320;-0.580;2022-08-14T07:00:21;16.30;;;9.80;;
69991;SDS011;57332;51.320;-0.580;2022-08-14T07:02:53;13.32;;;8.63;;
69991;SDS011;57332;51.320;-0.580;2022-08-14T07:05:39;13.98;;;8.10;;
69991;SDS011;57332;51.320;-0.580;2022-08-14T07:08:25;9.93;;;6.85;;
69991;SDS011;57332;51.320;-0.580;2022-08-14T07:10:56;10.02;;;6.65;;
69991;SDS011;57332;51.320;-0.580;2022-08-14T07:13:25;9.73;;;6.70;;
69991;SDS011;57332;51.320;-0.580;2022-08-14T07:15:53;10.88;;;6.53;;
69991;SDS011;57332;51.320;-0.580;2022-08-14T07:18:21;9.43;;;6.30;;
69991;SDS011;57332;51.320;-0.580;2022-08-14T07:20:49;8.93;;;6.15;;
69991;SDS011;57332;51.320;-0.580;2022-08-14T07:23:16;8.27;;;5.88;;
69991;SDS011;57332;51.320;-0.580;2022-08-14T07:25:47;8.95;;;6.43;;
69991;SDS011;57332;51.320;-0.580;2022-08-14T07:28:27;9.68;;;6.88;;
69991;SDS011;57332;51.320;-0.580;2022-08-14T07:30:56;9.38;;;6.30;;
69991;SDS011;57332;51.320;-0.580;2022-08-14T07:33:33;9.75;;;6.18;;
69991;SDS011;57332;51.320;-0.580;2022-08-14T07:36:04;10.85;;;6.10;;
69991;SDS011;57332;51.320;-0.580;2022-08-14T07:38:52;7.30;;;5.88;;
69991;SDS011;57332;51.320;-0.580;2022-08-14T07:41:19;8.45;;;6.53;;
69991;SDS011;57332;51.320;-0.580;2022-08-14T07:43:47;8.38;;;6.28;;
69991;SDS011;57332;51.320;-0.580;2022-08-14T07:46:21;7.78;;;6.00;;
69991;SDS011;57332;51.320;-0.580;2022-08-14T07:48:56;10.48;;;5.90;;
69991;SDS011;57332;51.320;-0.580;2022-08-14T07:51:23;8.90;;;6.00;;
69991;SDS011;57332;51.320;-0.580;2022-08-14T07:54:00;9.25;;;6.22;;
69991;SDS011;57332;51.320;-0.580;2022-08-14T07:56:29;7.18;;;5.90;;
69991;SDS011;57332;51.320;-0.580;2022-08-14T07:59:15;6.85;;;5.75;;
69991;SDS011;57332;51.320;-0.580;2022-08-14T08:01:44;8.75;;;5.80;;
69991;SDS011;57332;51.320;-0.580;2022-08-14T08:04:21;8.43;;;5.28;;
69991;SDS011;57332;51.320;-0.580;2022-08-14T08:06:52;10.63;;;5.90;;
69991;SDS011;57332;51.320;-0.580;2022-08-14T08:09:22;9.98;;;5.78;;
69991;SDS011;57332;51.320;-0.580;2022-08-14T08:11:49;7.90;;;5.60;;
69991;SDS011;57332;51.320;-0.580;2022-08-14T08:14:22;7.50;;;5.68;;
69991;SDS011;57332;51.320;-0.580;2022-08-14T08:16:50;6.60;;;5.43;;
69991;SDS011;57332;51.320;-0.580;2022-08-14T08:19:17;8.65;;;5.40;;
69991;SDS011;57332;51.320;-0.580;2022-08-14T08:21:45;7.57;;;4.95;;
69991;SDS011;57332;51.320;-0.580;2022-08-14T08:24:13;5.97;;;5.10;;
69991;SDS011;57332;51.320;-0.580;2022-08-14T08:26:46;6.55;;;4.95;;
69991;SDS011;57332;51.320;-0.580;2022-08-14T08:29:20;6.15;;;4.93;;
69991;SDS011;57332;51.320;-0.580;2022-08-14T08:31:54;7.65;;;5.20;;
69991;SDS011;57332;51.320;-0.580;2022-08-14T08:34:27;6.55;;;5.00;;
69991;SDS011;57332;51.320;-0.580;2022-08-14T08:36:56;6.35;;;5.22;;
69991;SDS011;57332;51.320;-0.580;2022-08-14T08:39:25;6.72;;;4.55;;
69991;SDS011;57332;51.320;-0.580;2022-08-14T08:42:12;6.18;;;5.25;;
69991;SDS011;57332;51.320;-0.580;2022-08-14T08:44:40;8.07;;;4.88;;
69991;SDS011;57332;51.320;-0.580;2022-08-14T08:47:08;8.02;;;5.53;;
69991;SDS011;57332;51.320;-0.580;2022-08-14T08:52:13;6.47;;;4.90;;
69991;SDS011;57332;51.320;-0.580;2022-08-14T08:54:54;7.40;;;5.15;;
69991;SDS011;57332;51.320;-0.580;2022-08-14T08:57:21;6.93;;;5.20;;
69991;SDS011;57332;51.320;-0.580;2022-08-14T08:59:49;6.68;;;4.88;;
69991;SDS011;57332;51.320;-0.580;2022-08-14T09:02:24;5.75;;;4.78;;
69991;SDS011;57332;51.320;-0.580;2022-08-14T09:05:00;7.63;;;4.43;;
69991;SDS011;57332;51.320;-0.580;2022-08-14T09:07:27;7.18;;;4.68;;
69991;SDS011;57332;51.320;-0.580;2022-08-14T09:09:54;6.18;;;4.75;;
69991;SDS011;57332;51.320;-0.580;2022-08-14T09:12:25;7.53;;;5.13;;
69991;SDS011;57332;51.320;-0.580;2022-08-14T09:14:52;7.10;;;4.78;;
69991;SDS011;57332;51.320;-0.580;2022-08-14T09:17:20;7.30;;;4.72;;
69991;SDS011;57332;51.320;-0.580;2022-08-14T09:19:52;5.75;;;4.60;;
69991;SDS011;57332;51.320;-0.580;2022-08-14T09:22:19;5.78;;;4.32;;
69991;SDS011;57332;51.320;-0.580;2022-08-14T09:25:05;6.00;;;4.70;;
69991;SDS011;57332;51.320;-0.580;2022-08-14T09:27:33;6.78;;;4.95;;
69991;SDS011;57332;51.320;-0.580;2022-08-14T09:30:00;5.57;;;4.45;;
69991;SDS011;57332;51.320;-0.580;2022-08-14T09:39:04;6.25;;;4.10;;
69991;SDS011;57332;51.320;-0.580;2022-08-14T09:46:07;6.80;;;4.15;;
69991;SDS011;57332;51.320;-0.580;2022-08-14T09:48:35;5.43;;;4.47;;
69991;SDS011;57332;51.320;-0.580;2022-08-14T09:51:04;5.90;;;4.22;;
69991;SDS011;57332;51.320;-0.580;2022-08-14T09:56:21;8.88;;;4.10;;
69991;SDS011;57332;51.320;-0.580;2022-08-14T09:58:56;5.75;;;4.13;;
69991;SDS011;57332;51.320;-0.580;2022-08-14T10:01:33;6.85;;;4.13;;
69991;SDS011;57332;51.320;-0.580;2022-08-14T10:04:04;8.27;;;4.10;;
69991;SDS011;57332;51.320;-0.580;2022-08-14T10:06:47;5.68;;;3.97;;
69991;SDS011;57332;51.320;-0.580;2022-08-14T10:09:17;5.32;;;3.80;;
69991;SDS011;57332;51.320;-0.580;2022-08-14T10:11:53;6.10;;;3.92;;
69991;SDS011;57332;51.320;-0.580;2022-08-14T10:14:27;9.00;;;4.15;;
69991;SDS011;57332;51.320;-0.580;2022-08-14T10:17:02;5.90;;;4.10;;
69991;SDS011;57332;51.320;-0.580;2022-08-14T10:19:33;6.57;;;4.03;;
69991;SDS011;57332;51.320;-0.580;2022-08-14T10:22:08;5.22;;;3.92;;
69991;SDS011;57332;51.320;-0.580;2022-08-14T10:24:56;6.70;;;4.10;;
69991;SDS011;57332;51.320;-0.580;2022-08-14T10:27:26;4.68;;;4.10;;
69991;SDS011;57332;51.320;-0.580;2022-08-14T10:29:55;6.38;;;4.00;;
69991;SDS011;57332;51.320;-0.580;2022-08-14T10:32:24;4.97;;;3.85;;
69991;SDS011;57332;51.320;-0.580;2022-08-14T10:35:05;6.20;;;3.78;;
69991;SDS011;57332;51.320;-0.580;2022-08-14T10:40:12;4.47;;;3.70;;
69991;SDS011;57332;51.320;-0.580;2022-08-14T10:43:00;4.20;;;3.60;;
69991;SDS011;57332;51.320;-0.580;2022-08-14T10:45:30;4.90;;;3.90;;
69991;SDS011;57332;51.320;-0.580;2022-08-14T10:48:01;6.57;;;3.90;;
69991;SDS011;57332;51.320;-0.580;2022-08-14T10:50:36;3.90;;;3.50;;
69991;SDS011;57332;51.320;-0.580;2022-08-14T10:53:08;5.55;;;3.50;;
69991;SDS011;57332;51.320;-0.580;2022-08-14T10:55:35;4.70;;;3.85;;
69991;SDS011;57332;51.320;-0.580;2022-08-14T10:58:11;5.15;;;3.83;;
69991;SDS011;57332;51.320;-0.580;2022-08-14T11:00:41;4.00;;;3.60;;
69991;SDS011;57332;51.320;-0.580;2022-08-14T11:03:12;4.57;;;3.83;;
69991;SDS011;57332;51.320;-0.580;2022-08-14T11:05:52;5.25;;;3.88;;
69991;SDS011;57332;51.320;-0.580;2022-08-14T11:08:31;5.00;;;3.72;;
69991;SDS011;57332;51.320;-0.580;2022-08-14T11:10:59;6.45;;;4.13;;
69991;SDS011;57332;51.320;-0.580;2022-08-14T11:13:30;6.53;;;3.92;;
69991;SDS011;57332;51.320;-0.580;2022-08-14T11:15:58;5.07;;;3.90;;
69991;SDS011;57332;51.320;-0.580;2022-08-14T11:18:26;4.30;;;3.90;;
69991;SDS011;57332;51.320;-0.580;2022-08-14T11:21:02;4.57;;;3.70;;
69991;SDS011;57332;51.320;-0.580;2022-08-14T11:23:34;4.45;;;3.60;;
69991;SDS011;57332;51.320;-0.580;2022-08-14T11:26:04;5.32;;;3.65;;
69991;SDS011;57332;51.320;-0.580;2022-08-14T11:28:33;6.25;;;3.50;;
69991;SDS011;57332;51.320;-0.580;2022-08-14T11:31:20;5.13;;;3.45;;
69991;SDS011;57332;51.320;-0.580;2022-08-14T11:33:50;4.18;;;3.63;;
69991;SDS011;57332;51.320;-0.580;2022-08-14T11:36:21;4.47;;;3.38;;
69991;SDS011;57332;51.320;-0.580;2022-08-14T11:38:49;3.97;;;3.63;;
69991;SDS011;57332;51.320;-0.580;2022-08-14T11:41:19;3.80;;;3.40;;
69991;SDS011;57332;51.320;-0.580;2022-08-14T11:43:47;4.28;;;3.40;;
69991;SDS011;57332;51.320;-0.580;2022-08-14T11:46:24;5.57;;;3.45;;
69991;SDS011;57332;51.320;-0.580;2022-08-14T11:49:03;4.15;;;3.10;;
69991;SDS011;57332;51.320;-0.580;2022-08-14T11:51:31;3.97;;;3.30;;
69991;SDS011;57332;51.320;-0.580;2022-08-14T11:54:03;5.13;;;3.38;;
69991;SDS011;57332;51.320;-0.580;2022-08-14T11:56:34;4.13;;;3.22;;
69991;SDS011;57332;51.320;-0.580;2022-08-14T11:59:02;4.13;;;3.08;;
69991;SDS011;57332;51.320;-0.580;2022-08-14T12:01:29;5.63;;;3.20;;
69991;SDS011;57332;51.320;-0.580;2022-08-14T12:04:07;4.28;;;3.08;;
69991;SDS011;57332;51.320;-0.580;2022-08-14T12:06:54;3.88;;;3.20;;
69991;SDS011;57332;51.320;-0.580;2022-08-14T12:09:32;3.78;;;2.92;;
69991;SDS011;57332;51.320;-0.580;2022-08-14T12:12:00;2.95;;;2.65;;
69991;SDS011;57332;51.320;-0.580;2022-08-14T12:14:27;3.47;;;2.90;;
69991;SDS011;57332;51.320;-0.580;2022-08-14T12:17:03;3.70;;;2.72;;
69991;SDS011;57332;51.320;-0.580;2022-08-14T12:22:17;3.42;;;2.80;;
69991;SDS011;57332;51.320;-0.580;2022-08-14T12:24:55;4.07;;;3.03;;
69991;SDS011;57332;51.320;-0.580;2022-08-14T12:27:22;7.55;;;3.08;;
69991;SDS011;57332;51.320;-0.580;2022-08-14T12:30:07;4.03;;;2.90;;
69991;SDS011;57332;51.320;-0.580;2022-08-14T12:32:37;4.40;;;2.80;;
69991;SDS011;57332;51.320;-0.580;2022-08-14T12:35:04;3.03;;;2.58;;
69991;SDS011;57332;51.320;-0.580;2022-08-14T12:37:31;4.57;;;2.83;;
69991;SDS011;57332;51.320;-0.580;2022-08-14T12:40:10;2.92;;;2.72;;
69991;SDS011;57332;51.320;-0.580;2022-08-14T12:42:38;3.88;;;2.80;;
69991;SDS011;57332;51.320;-0.580;2022-08-14T12:45:27;4.90;;;2.75;;
69991;SDS011;57332;51.320;-0.580;2022-08-14T12:47:58;3.92;;;2.78;;
69991;SDS011;57332;51.320;-0.580;2022-08-14T12:52:53;3.38;;;2.63;;
69991;SDS011;57332;51.320;-0.580;2022-08-14T12:55:39;5.40;;;2.78;;
69991;SDS011;57332;51.320;-0.580;2022-08-14T12:58:28;3.58;;;2.70;;
69991;SDS011;57332;51.320;-0.580;2022-08-14T13:01:18;3.83;;;2.60;;
69991;SDS011;57332;51.320;-0.580;2022-08-14T13:03:46;4.43;;;2.45;;
69991;SDS011;57332;51.320;-0.580;2022-08-14T13:06:18;2.92;;;2.50;;
69991;SDS011;57332;51.320;-0.580;2022-08-14T13:08:45;3.22;;;2.65;;
69991;SDS011;57332;51.320;-0.580;2022-08-14T13:11:19;4.10;;;2.55;;
69991;SDS011;57332;51.320;-0.580;2022-08-14T13:13:49;2.92;;;2.50;;
69991;SDS011;57332;51.320;-0.580;2022-08-14T13:16:18;3.20;;;2.72;;
69991;SDS011;57332;51.320;-0.580;2022-08-14T13:18:59;4.35;;;2.50;;
69991;SDS011;57332;51.320;-0.580;2022-08-14T13:21:28;3.50;;;2.65;;
69991;SDS011;57332;51.320;-0.580;2022-08-14T13:24:17;3.08;;;2.70;;
69991;SDS011;57332;51.320;-0.580;2022-08-14T13:26:46;2.92;;;2.42;;
69991;SDS011;57332;51.320;-0.580;2022-08-14T13:29:14;2.78;;;2.47;;
69991;SDS011;57332;51.320;-0.580;2022-08-14T13:31:42;3.72;;;2.50;;
69991;SDS011;57332;51.320;-0.580;2022-08-14T13:34:11;2.83;;;2.53;;
69991;SDS011;57332;51.320;-0.580;2022-08-14T13:36:38;3.22;;;2.47;;
69991;SDS011;57332;51.320;-0.580;2022-08-14T13:39:25;4.20;;;2.50;;
69991;SDS011;57332;51.320;-0.580;2022-08-14T13:41:52;3.42;;;2.70;;
69991;SDS011;57332;51.320;-0.580;2022-08-14T13:44:23;2.92;;;2.63;;
69991;SDS011;57332;51.320;-0.580;2022-08-14T13:46:51;3.67;;;2.63;;
69991;SDS011;57332;51.320;-0.580;2022-08-14T13:49:18;3.28;;;2.60;;
69991;SDS011;57332;51.320;-0.580;2022-08-14T13:54:16;3.22;;;2.70;;
69991;SDS011;57332;51.320;-0.580;2022-08-14T13:56:48;3.47;;;2.60;;
69991;SDS011;57332;51.320;-0.580;2022-08-14T13:59:15;3.13;;;2.83;;
69991;SDS011;57332;51.320;-0.580;2022-08-14T14:02:06;3.92;;;2.85;;
69991;SDS011;57332;51.320;-0.580;2022-08-14T14:04:37;2.97;;;2.67;;
69991;SDS011;57332;51.320;-0.580;2022-08-14T14:07:05;6.07;;;2.60;;
69991;SDS011;57332;51.320;-0.580;2022-08-14T14:09:36;2.85;;;2.30;;
69991;SDS011;57332;51.320;-0.580;2022-08-14T14:12:18;3.88;;;2.80;;
69991;SDS011;57332;51.320;-0.580;2022-08-14T14:15:06;3.30;;;2.50;;
69991;SDS011;57332;51.320;-0.580;2022-08-14T14:17:35;5.28;;;2.70;;
69991;SDS011;57332;51.320;-0.580;2022-08-14T14:20:05;3.17;;;2.70;;
69991;SDS011;57332;51.320;-0.580;2022-08-14T14:22:34;3.03;;;2.58;;
69991;SDS011;57332;51.320;-0.580;2022-08-14T14:25:23;3.88;;;2.63;;
69991;SDS011;57332;51.320;-0.580;2022-08-14T14:28:12;3.97;;;2.70;;
69991;SDS011;57332;51.320;-0.580;2022-08-14T14:30:39;3.03;;;2.63;;
69991;SDS011;57332;51.320;-0.580;2022-08-14T14:33:19;3.50;;;2.83;;
69991;SDS011;57332;51.320;-0.580;2022-08-14T14:36:07;4.43;;;2.70;;
69991;SDS011;57332;51.320;-0.580;2022-08-14T14:38:39;3.00;;;2.53;;
69991;SDS011;57332;51.320;-0.580;2022-08-14T14:41:08;3.33;;;2.40;;
69991;SDS011;57332;51.320;-0.580;2022-08-14T14:43:36;6.53;;;2.80;;
69991;SDS011;57332;51.320;-0.580;2022-08-14T14:46:10;3.85;;;2.45;;
69991;SDS011;57332;51.320;-0.580;2022-08-14T14:48:39;3.63;;;2.58;;
69991;SDS011;57332;51.320;-0.580;2022-08-14T14:51:19;3.15;;;2.60;;
69991;SDS011;57332;51.320;-0.580;2022-08-14T14:53:47;3.78;;;2.47;;
69991;SDS011;57332;51.320;-0.580;2022-08-14T14:56:14;4.43;;;2.42;;
69991;SDS011;57332;51.320;-0.580;2022-08-14T14:59:01;2.95;;;2.42;;
69991;SDS011;57332;51.320;-0.580;2022-08-14T15:01:30;4.70;;;2.22;;
69991;SDS011;57332;51.320;-0.580;2022-08-14T15:03:59;3.00;;;2.55;;
69991;SDS011;57332;51.320;-0.580;2022-08-14T15:06:33;4.93;;;2.70;;
69991;SDS011;57332;51.320;-0.580;2022-08-14T15:09:00;2.97;;;2.60;;
69991;SDS011;57332;51.320;-0.580;2022-08-14T15:11:30;5.25;;;2.60;;
69991;SDS011;57332;51.320;-0.580;2022-08-14T15:13:58;2.83;;;2.40;;
69991;SDS011;57332;51.320;-0.580;2022-08-14T15:16:26;4.80;;;2.60;;
69991;SDS011;57332;51.320;-0.580;2022-08-14T15:18:53;3.80;;;3.00;;
69991;SDS011;57332;51.320;-0.580;2022-08-14T15:21:20;3.80;;;2.70;;
69991;SDS011;57332;51.320;-0.580;2022-08-14T15:23:48;4.18;;;2.70;;
69991;SDS011;57332;51.320;-0.580;2022-08-14T15:26:15;3.88;;;2.97;;
69991;SDS011;57332;51.320;-0.580;2022-08-14T15:29:01;3.50;;;2.85;;